createdAt,value
2018-09-01T00:01:07.835Z,2.40
2018-09-01T00:04:12.772Z,2.87
2018-09-01T00:07:17.744Z,2.30
2018-09-01T00:10:22.692Z,2.43
2018-09-01T00:13:27.637Z,2.10
2018-09-01T00:16:32.568Z,2.27
2018-09-01T00:19:37.543Z,2.53
2018-09-01T00:22:42.458Z,2.40
2018-09-01T00:25:47.372Z,2.30
2018-09-01T00:28:52.289Z,2.63
2018-09-01T00:31:57.217Z,2.40
2018-09-01T00:35:02.145Z,2.60
2018-09-01T00:38:12.752Z,2.50
2018-09-01T00:41:17.673Z,2.27
2018-09-01T00:44:22.603Z,2.13
2018-09-01T00:47:27.536Z,2.67
2018-09-01T00:50:32.452Z,2.60
2018-09-01T00:53:37.365Z,2.37
2018-09-01T00:56:42.285Z,2.37
2018-09-01T00:59:47.252Z,2.43
2018-09-01T01:02:52.180Z,2.10
2018-09-01T01:05:57.097Z,2.80
2018-09-01T01:09:02.041Z,2.90
2018-09-01T01:12:06.961Z,2.27
2018-09-01T01:15:11.932Z,2.20
2018-09-01T01:18:16.845Z,2.30
2018-09-01T01:21:21.768Z,2.10
2018-09-01T01:24:26.746Z,2.43
2018-09-01T01:27:31.646Z,2.03
2018-09-01T01:30:36.582Z,2.33
2018-09-01T01:33:41.517Z,2.60
2018-09-01T01:36:46.441Z,2.20
2018-09-01T01:39:51.350Z,2.23
2018-09-01T01:42:56.300Z,2.67
2018-09-01T01:46:01.238Z,2.40
2018-09-01T01:49:06.154Z,2.43
2018-09-01T01:52:11.073Z,2.63
2018-09-01T01:55:15.997Z,2.50
2018-09-01T01:58:20.922Z,2.50
2018-09-01T02:01:25.858Z,2.20
2018-09-01T02:04:30.785Z,2.20
2018-09-01T02:07:35.777Z,2.40
2018-09-01T02:10:40.703Z,2.57
2018-09-01T02:13:45.628Z,2.57
2018-09-01T02:16:50.553Z,2.50
2018-09-01T02:19:55.465Z,2.67
2018-09-01T02:23:00.413Z,2.80
2018-09-01T02:26:05.533Z,2.53
2018-09-01T02:29:10.445Z,2.40
2018-09-01T02:32:15.361Z,2.27
2018-09-01T02:35:20.280Z,2.27
2018-09-01T02:38:25.187Z,2.63
2018-09-01T02:41:30.112Z,3.07
2018-09-01T02:44:35.025Z,2.33
2018-09-01T02:47:39.922Z,2.47
2018-09-01T02:50:44.853Z,2.70
2018-09-01T02:53:49.769Z,2.27
2018-09-01T02:56:54.672Z,3.10
2018-09-01T02:59:59.582Z,2.47
2018-09-01T03:03:04.525Z,2.43
2018-09-01T03:06:09.470Z,2.60
2018-09-01T03:09:14.608Z,2.43
2018-09-01T03:12:19.522Z,2.27
2018-09-01T03:15:24.511Z,2.43
2018-09-01T03:18:29.434Z,2.37
2018-09-01T03:21:34.401Z,2.00
2018-09-01T03:24:39.329Z,2.67
2018-09-01T03:27:44.250Z,2.80
2018-09-01T03:30:49.211Z,2.80
2018-09-01T03:33:54.393Z,2.50
2018-09-01T03:36:59.315Z,2.80
2018-09-01T03:40:05.086Z,2.73
2018-09-01T03:43:09.992Z,2.50
2018-09-01T03:46:14.912Z,2.50
2018-09-01T03:49:19.888Z,2.60
2018-09-01T03:52:24.805Z,2.20
2018-09-01T03:55:29.720Z,2.60
2018-09-01T03:58:34.821Z,3.20
2018-09-01T04:01:39.763Z,2.40
2018-09-01T04:04:44.696Z,2.30
2018-09-01T04:07:49.613Z,2.07
2018-09-01T04:10:54.541Z,2.17
2018-09-01T04:13:59.457Z,2.50
2018-09-01T04:17:04.911Z,2.60
2018-09-01T04:20:09.837Z,2.47
2018-09-01T04:23:14.773Z,2.83
2018-09-01T04:26:19.686Z,2.70
2018-09-01T04:29:24.589Z,2.33
2018-09-01T04:32:29.513Z,2.10
2018-09-01T04:35:34.433Z,2.47
2018-09-01T04:38:39.366Z,2.10
2018-09-01T04:41:44.309Z,2.60
2018-09-01T04:44:49.251Z,2.23
2018-09-01T04:47:54.188Z,2.40
2018-09-01T04:50:59.113Z,2.30
2018-09-01T04:54:04.138Z,2.17
2018-09-01T04:57:09.064Z,2.37
2018-09-01T05:00:19.915Z,2.40
2018-09-01T05:03:24.831Z,2.67
2018-09-01T05:06:29.749Z,2.30
2018-09-01T05:09:34.649Z,2.50
2018-09-01T05:12:39.685Z,2.20
2018-09-01T05:15:44.613Z,2.33
2018-09-01T05:18:50.292Z,2.70
2018-09-01T05:21:55.269Z,2.17
2018-09-01T05:25:00.256Z,2.33
2018-09-01T05:28:05.240Z,2.47
2018-09-01T05:31:10.164Z,2.93
2018-09-01T05:34:15.281Z,2.10
2018-09-01T05:37:20.237Z,2.60
2018-09-01T05:40:25.316Z,2.30
2018-09-01T05:43:30.328Z,2.40
2018-09-01T05:46:35.260Z,2.43
2018-09-01T05:49:40.189Z,1.93
2018-09-01T05:52:45.122Z,2.60
2018-09-01T05:55:50.067Z,2.17
2018-09-01T05:58:55.134Z,2.53
2018-09-01T06:02:00.096Z,2.57
2018-09-01T06:05:05.916Z,2.40
2018-09-01T06:08:10.871Z,2.43
2018-09-01T06:11:15.813Z,2.53
2018-09-01T06:14:20.721Z,2.57
2018-09-01T06:17:25.720Z,2.40
2018-09-01T06:20:30.625Z,2.50
2018-09-01T06:23:35.581Z,2.90
2018-09-01T06:26:40.568Z,2.60
2018-09-01T06:29:45.541Z,2.30
2018-09-01T06:32:50.524Z,1.97
2018-09-01T06:35:55.446Z,2.00
2018-09-01T06:39:00.368Z,2.50
2018-09-01T06:42:05.337Z,2.70
2018-09-01T06:45:10.256Z,2.57
2018-09-01T06:48:15.217Z,2.43
2018-09-01T06:51:20.184Z,2.47
2018-09-01T06:54:25.172Z,2.20
2018-09-01T06:57:30.124Z,2.30
2018-09-01T07:00:35.054Z,2.40
2018-09-01T07:03:39.968Z,2.13
2018-09-01T07:06:44.894Z,1.90
2018-09-01T07:09:49.825Z,2.30
2018-09-01T07:12:54.768Z,2.00
2018-09-01T07:15:59.762Z,2.20
2018-09-01T07:19:04.851Z,2.20
2018-09-01T07:22:09.805Z,1.63
2018-09-01T07:25:14.719Z,1.90
2018-09-01T07:28:19.664Z,2.00
2018-09-01T07:31:25.052Z,2.00
2018-09-01T07:34:29.583Z,1.70
2018-09-01T07:37:34.537Z,2.20
2018-09-01T07:40:39.482Z,1.77
2018-09-01T07:43:44.392Z,1.90
2018-09-01T07:46:49.836Z,2.03
2018-09-01T07:49:54.775Z,1.80
2018-09-01T07:52:59.660Z,1.77
2018-09-01T07:56:04.661Z,1.90
2018-09-01T07:59:09.547Z,1.90
2018-09-01T08:02:14.481Z,1.60
2018-09-01T08:05:19.412Z,1.77
2018-09-01T08:08:24.347Z,1.80
2018-09-01T08:11:29.276Z,1.90
2018-09-01T08:14:34.247Z,1.80
2018-09-01T08:17:39.117Z,1.93
2018-09-01T08:20:44.037Z,1.87
2018-09-01T08:23:48.964Z,2.03
2018-09-01T08:30:11.557Z,1.77
2018-09-01T08:33:16.470Z,2.07
2018-09-01T08:36:21.429Z,1.70
2018-09-01T08:39:26.369Z,2.00
2018-09-01T08:42:31.316Z,1.90
2018-09-01T08:45:36.250Z,1.90
2018-09-01T08:48:41.182Z,1.83
2018-09-01T08:51:46.109Z,1.80
2018-09-01T08:54:51.033Z,2.00
2018-09-01T08:57:56.003Z,1.73
2018-09-01T09:01:00.930Z,1.97
2018-09-01T09:04:05.870Z,1.87
2018-09-01T09:07:10.823Z,1.60
2018-09-01T09:10:15.875Z,1.80
2018-09-01T09:13:20.797Z,1.80
2018-09-01T09:16:25.721Z,2.17
2018-09-01T09:19:30.683Z,1.43
2018-09-01T09:22:35.880Z,1.80
2018-09-01T09:25:40.815Z,1.67
2018-09-01T09:28:45.736Z,1.57
2018-09-01T09:31:50.680Z,1.37
2018-09-01T09:34:55.620Z,2.00
2018-09-01T09:38:00.546Z,1.60
2018-09-01T09:41:05.580Z,1.70
2018-09-01T09:44:10.528Z,2.03
2018-09-01T09:47:15.456Z,1.67
2018-09-01T09:50:20.400Z,1.80
2018-09-01T09:53:25.334Z,1.83
2018-09-01T09:56:30.287Z,1.73
2018-09-01T09:59:35.213Z,2.03
2018-09-01T10:02:40.137Z,1.40
2018-09-01T10:05:45.131Z,1.70
2018-09-01T10:08:50.013Z,1.87
2018-09-01T10:11:54.961Z,1.70
2018-09-01T10:14:59.889Z,1.90
2018-09-01T10:18:04.829Z,1.60
2018-09-01T10:21:09.777Z,1.90
2018-09-01T10:24:14.729Z,9.10
2018-09-01T10:27:19.661Z,3.17
2018-09-01T10:30:24.606Z,2.50
2018-09-01T10:33:29.552Z,2.20
2018-09-01T10:36:34.485Z,5.87
2018-09-01T10:39:39.421Z,13.27
2018-09-01T10:42:44.336Z,8.00
2018-09-01T10:45:50.095Z,1.50
2018-09-01T10:48:55.098Z,1.87
2018-09-01T10:52:00.009Z,1.90
2018-09-01T10:55:05.005Z,1.80
2018-09-01T10:58:09.916Z,1.57
2018-09-01T11:01:14.889Z,1.53
2018-09-01T11:04:19.814Z,1.47
2018-09-01T11:07:24.742Z,1.40
2018-09-01T11:10:29.684Z,1.33
2018-09-01T11:13:34.609Z,1.23
2018-09-01T11:16:39.546Z,2.10
2018-09-01T11:19:44.523Z,1.30
2018-09-01T11:22:49.443Z,1.60
2018-09-01T11:25:54.386Z,1.43
2018-09-01T11:28:59.310Z,1.40
2018-09-01T11:32:04.578Z,1.53
2018-09-01T11:35:09.831Z,1.70
2018-09-01T11:38:14.775Z,1.53
2018-09-01T11:41:19.692Z,1.40
2018-09-01T11:44:24.606Z,1.37
2018-09-01T11:47:29.769Z,1.40
2018-09-01T11:50:34.676Z,1.37
2018-09-01T11:53:39.663Z,1.60
2018-09-01T11:56:44.531Z,1.50
2018-09-01T11:59:49.717Z,1.40
2018-09-01T12:02:54.613Z,1.90
2018-09-01T12:05:59.516Z,1.53
2018-09-01T12:09:05.614Z,1.30
2018-09-01T12:12:10.461Z,1.57
2018-09-01T12:15:15.385Z,1.53
2018-09-01T12:18:20.320Z,1.50
2018-09-01T12:21:25.288Z,1.23
2018-09-01T12:24:30.213Z,1.90
2018-09-01T12:27:35.141Z,1.60
2018-09-01T12:30:40.077Z,1.97
2018-09-01T12:33:45.029Z,1.47
2018-09-01T12:36:49.950Z,1.90
2018-09-01T12:39:54.888Z,1.30
2018-09-01T12:42:59.821Z,1.70
2018-09-01T12:46:04.766Z,1.33
2018-09-01T12:49:09.721Z,1.30
2018-09-01T12:52:14.649Z,1.47
2018-09-01T12:55:19.580Z,1.30
2018-09-01T12:58:24.501Z,1.30
2018-09-01T13:01:29.477Z,1.40
2018-09-01T13:04:34.397Z,1.63
2018-09-01T13:07:39.333Z,1.63
2018-09-01T13:10:44.268Z,1.37
2018-09-01T13:13:49.200Z,1.53
2018-09-01T13:16:54.141Z,1.50
2018-09-01T13:19:59.057Z,1.87
2018-09-01T13:23:04.198Z,1.70
2018-09-01T13:26:09.123Z,1.37
2018-09-01T13:29:14.031Z,1.53
2018-09-01T13:32:18.968Z,1.40
2018-09-01T13:35:23.897Z,1.60
2018-09-01T13:38:28.837Z,1.50
2018-09-01T13:41:33.769Z,1.43
2018-09-01T13:44:38.722Z,1.60
2018-09-01T13:47:43.625Z,1.80
2018-09-01T13:50:48.554Z,1.50
2018-09-01T13:53:53.469Z,1.23
2018-09-01T13:56:58.396Z,1.40
2018-09-01T14:00:03.417Z,1.60
2018-09-01T14:03:08.341Z,1.40
2018-09-01T14:06:13.269Z,1.50
2018-09-01T14:09:18.201Z,1.43
2018-09-01T14:12:23.145Z,1.60
2018-09-01T14:15:28.064Z,1.70
2018-09-01T14:18:33.020Z,1.50
2018-09-01T14:21:37.949Z,1.37
2018-09-01T14:24:42.885Z,1.47
2018-09-01T14:27:47.817Z,1.30
2018-09-01T14:31:05.764Z,1.50
2018-09-01T14:34:10.738Z,1.30
2018-09-01T14:37:15.652Z,1.47
2018-09-01T14:40:20.590Z,1.37
2018-09-01T14:43:25.514Z,1.40
2018-09-01T14:46:30.465Z,1.50
2018-09-01T14:49:35.385Z,1.70
2018-09-01T14:52:40.340Z,1.27
2018-09-01T14:55:45.301Z,1.40
2018-09-01T14:58:50.254Z,1.40
2018-09-01T15:01:55.183Z,1.43
2018-09-01T15:05:00.153Z,1.60
2018-09-01T15:08:05.225Z,1.37
2018-09-01T15:11:10.151Z,1.10
2018-09-01T15:14:15.101Z,1.33
2018-09-01T15:17:20.029Z,1.50
2018-09-01T15:20:24.977Z,1.40
2018-09-01T15:23:29.910Z,1.17
2018-09-01T15:26:35.021Z,1.37
2018-09-01T15:29:39.934Z,1.20
2018-09-01T15:32:44.926Z,1.30
2018-09-01T15:35:49.837Z,1.17
2018-09-01T15:38:54.760Z,1.37
2018-09-01T15:41:59.689Z,1.20
2018-09-01T15:45:04.657Z,1.40
2018-09-01T15:48:09.633Z,1.17
2018-09-01T15:51:14.609Z,1.10
2018-09-01T15:54:19.541Z,1.10
2018-09-01T15:57:24.472Z,1.50
2018-09-01T16:00:29.417Z,1.20
2018-09-01T16:03:34.445Z,1.40
2018-09-01T16:06:39.350Z,1.10
2018-09-01T16:09:44.294Z,1.20
2018-09-01T16:12:49.254Z,1.10
2018-09-01T16:15:54.201Z,1.57
2018-09-01T16:18:59.150Z,1.40
2018-09-01T16:22:04.137Z,1.30
2018-09-01T16:25:09.076Z,1.27
2018-09-01T16:28:14.054Z,1.30
2018-09-01T16:31:19.010Z,1.00
2018-09-01T16:34:24.035Z,1.30
2018-09-01T16:37:28.936Z,1.50
2018-09-01T16:40:33.854Z,1.20
2018-09-01T16:43:38.805Z,1.30
2018-09-01T16:46:43.733Z,1.30
2018-09-01T16:49:48.681Z,1.17
2018-09-01T16:52:53.608Z,1.50
2018-09-01T16:55:58.533Z,1.10
2018-09-01T16:59:03.601Z,0.90
2018-09-01T17:02:08.558Z,1.20
2018-09-01T17:05:13.502Z,1.27
2018-09-01T17:08:18.435Z,1.27
2018-09-01T17:11:23.369Z,1.00
2018-09-01T17:14:28.294Z,1.27
2018-09-01T17:17:33.229Z,1.30
2018-09-01T17:20:38.174Z,1.30
2018-09-01T17:23:43.161Z,1.07
2018-09-01T17:26:48.068Z,1.57
2018-09-01T17:30:01.106Z,1.00
2018-09-01T17:33:06.315Z,1.10
2018-09-01T17:36:11.216Z,1.27
2018-09-01T17:39:16.157Z,1.30
2018-09-01T17:42:21.048Z,1.20
2018-09-01T17:45:25.954Z,1.33
2018-09-01T17:48:30.887Z,2.83
2018-09-01T17:51:35.792Z,1.70
2018-09-01T17:54:40.750Z,1.90
2018-09-01T17:57:45.648Z,1.70
2018-09-01T18:00:50.618Z,1.80
2018-09-01T18:03:55.548Z,1.53
2018-09-01T18:07:00.452Z,2.07
2018-09-01T18:10:05.437Z,4.57
2018-09-01T18:13:10.349Z,3.83
2018-09-01T18:16:15.249Z,3.40
2018-09-01T18:19:20.168Z,3.53
2018-09-01T18:22:25.096Z,5.33
2018-09-01T18:25:30.030Z,4.60
2018-09-01T18:28:34.953Z,4.93
2018-09-01T18:31:39.873Z,5.13
2018-09-01T18:34:44.835Z,9.60
2018-09-01T18:37:49.753Z,5.10
2018-09-01T18:40:54.680Z,3.70
2018-09-01T18:43:59.625Z,3.20
2018-09-01T18:47:04.947Z,4.10
2018-09-01T18:50:09.842Z,4.07
2018-09-01T18:53:14.819Z,3.23
2018-09-01T18:56:19.873Z,2.17
2018-09-01T18:59:24.825Z,2.10
2018-09-01T19:02:29.941Z,3.43
2018-09-01T19:05:34.917Z,3.97
2018-09-01T19:08:39.855Z,4.60
2018-09-01T19:11:44.792Z,5.03
2018-09-01T19:14:49.717Z,4.10
2018-09-01T19:17:54.653Z,2.20
2018-09-01T19:20:59.859Z,5.07
2018-09-01T19:24:04.950Z,4.17
2018-09-01T19:27:09.856Z,2.90
2018-09-01T19:30:14.864Z,2.30
2018-09-01T19:33:19.772Z,1.90
2018-09-01T19:36:24.700Z,2.73
2018-09-01T19:39:29.630Z,2.80
2018-09-01T19:42:34.533Z,3.23
2018-09-01T19:45:39.556Z,3.00
2018-09-01T19:48:44.357Z,3.00
2018-09-01T19:51:49.489Z,2.40
2018-09-01T19:54:54.426Z,2.20
2018-09-01T19:57:59.365Z,1.87
2018-09-01T20:01:04.351Z,2.10
2018-09-01T20:04:09.263Z,1.50
2018-09-01T20:07:14.180Z,1.73
2018-09-01T20:10:19.083Z,2.03
2018-09-01T20:13:23.993Z,2.63
2018-09-01T20:16:28.928Z,1.60
2018-09-01T20:19:33.841Z,2.67
2018-09-01T20:22:38.772Z,1.90
2018-09-01T20:25:43.687Z,1.80
2018-09-01T20:28:48.627Z,1.30
2018-09-01T20:31:53.638Z,1.50
2018-09-01T20:35:04.157Z,2.73
2018-09-01T20:38:09.073Z,2.23
2018-09-01T20:41:14.055Z,1.60
2018-09-01T20:44:19.017Z,1.70
2018-09-01T20:47:23.944Z,3.70
2018-09-01T20:50:28.867Z,2.20
2018-09-01T20:53:33.797Z,2.60
2018-09-01T20:56:38.768Z,2.00
2018-09-01T20:59:43.753Z,1.70
2018-09-01T21:02:48.698Z,1.77
2018-09-01T21:05:53.596Z,1.60
2018-09-01T21:08:58.525Z,1.60
2018-09-01T21:12:03.447Z,1.90
2018-09-01T21:15:08.400Z,2.40
2018-09-01T21:18:13.324Z,1.80
2018-09-01T21:21:18.277Z,1.30
2018-09-01T21:24:23.233Z,1.40
2018-09-01T21:27:28.168Z,1.50
2018-09-01T21:30:33.098Z,1.30
2018-09-01T21:33:38.049Z,2.63
2018-09-01T21:36:43.037Z,2.20
2018-09-01T21:39:48.013Z,1.80
2018-09-01T21:42:52.905Z,1.30
2018-09-01T21:45:57.820Z,1.80
2018-09-01T21:49:02.753Z,1.50
2018-09-01T21:52:07.712Z,1.70
2018-09-01T21:55:12.628Z,1.23
2018-09-01T22:02:19.855Z,1.57
2018-09-01T22:05:24.777Z,1.70
2018-09-01T22:08:29.717Z,1.90
2018-09-01T22:11:34.661Z,1.50
2018-09-01T22:14:39.573Z,1.60
2018-09-01T22:17:44.484Z,1.50
2018-09-01T22:20:49.405Z,1.57
2018-09-01T22:23:54.323Z,1.63
2018-09-01T22:26:59.232Z,1.20
2018-09-01T22:30:04.191Z,1.43
2018-09-01T22:33:09.125Z,1.57
2018-09-01T22:36:14.046Z,1.70
2018-09-01T22:39:18.979Z,1.37
2018-09-01T22:42:23.914Z,1.43
2018-09-01T22:45:28.832Z,1.43
2018-09-01T22:48:33.817Z,1.20
2018-09-01T22:51:38.826Z,1.57
2018-09-01T22:54:43.733Z,1.50
2018-09-01T22:57:48.667Z,1.33
2018-09-01T23:00:53.612Z,1.63
2018-09-01T23:03:58.538Z,1.73
2018-09-01T23:07:03.617Z,1.53
2018-09-01T23:10:08.524Z,1.40
2018-09-01T23:13:13.475Z,1.43
2018-09-01T23:16:18.408Z,1.47
2018-09-01T23:19:23.337Z,1.70
2018-09-01T23:22:28.261Z,1.80
2018-09-01T23:25:33.212Z,1.77
2018-09-01T23:28:38.210Z,1.30
2018-09-01T23:31:43.155Z,1.70
2018-09-01T23:34:48.069Z,1.60
2018-09-01T23:37:53.009Z,1.70
2018-09-01T23:40:57.959Z,1.43
2018-09-01T23:44:02.884Z,1.37
2018-09-01T23:47:07.829Z,1.63
2018-09-01T23:50:12.780Z,2.03
2018-09-01T23:53:17.713Z,1.40
2018-09-01T23:56:22.629Z,1.60
2018-09-01T23:59:27.550Z,1.77
